sensor_id;sensor_type;location;lat;lon;timestamp;P1;durP1;ratioP1;P2;durP2;ratioP2
19291;SDS011;9779;51.756;7.450;2023-12-14T00:00:20;7.27;;;6.77;;
19291;SDS011;9779;51.756;7.450;2023-12-14T00:02:46;7.50;;;7.00;;
19291;SDS011;9779;51.756;7.450;2023-12-14T00:05:11;6.43;;;6.03;;
19291;SDS011;9779;51.756;7.450;2023-12-14T00:07:37;6.10;;;5.70;;
19291;SDS011;9779;51.756;7.450;2023-12-14T00:10:03;6.43;;;5.93;;
19291;SDS011;9779;51.756;7.450;2023-12-14T00:12:30;7.13;;;6.47;;
19291;SDS011;9779;51.756;7.450;2023-12-14T00:14:55;7.77;;;7.27;;
19291;SDS011;9779;51.756;7.450;2023-12-14T00:17:21;7.00;;;6.60;;
19291;SDS011;9779;51.756;7.450;2023-12-14T00:19:46;6.87;;;6.47;;
19291;SDS011;9779;51.756;7.450;2023-12-14T00:22:12;6.80;;;6.30;;
19291;SDS011;9779;51.756;7.450;2023-12-14T00:24:38;7.77;;;7.17;;
19291;SDS011;9779;51.756;7.450;2023-12-14T00:27:03;7.80;;;7.20;;
19291;SDS011;9779;51.756;7.450;2023-12-14T00:29:29;7.83;;;7.33;;
19291;SDS011;9779;51.756;7.450;2023-12-14T00:31:55;7.47;;;7.00;;
19291;SDS011;9779;51.756;7.450;2023-12-14T00:34:20;7.30;;;6.80;;
19291;SDS011;9779;51.756;7.450;2023-12-14T00:36:46;6.43;;;6.03;;
19291;SDS011;9779;51.756;7.450;2023-12-14T00:39:11;6.70;;;6.30;;
19291;SDS011;9779;51.756;7.450;2023-12-14T00:41:38;7.03;;;6.60;;
19291;SDS011;9779;51.756;7.450;2023-12-14T00:44:03;8.13;;;7.07;;
19291;SDS011;9779;51.756;7.450;2023-12-14T00:46:29;6.73;;;6.30;;
19291;SDS011;9779;51.756;7.450;2023-12-14T00:48:54;7.30;;;6.80;;
19291;SDS011;9779;51.756;7.450;2023-12-14T00:51:20;6.93;;;6.43;;
19291;SDS011;9779;51.756;7.450;2023-12-14T00:53:46;7.67;;;7.17;;
19291;SDS011;9779;51.756;7.450;2023-12-14T00:56:11;8.80;;;7.17;;
19291;SDS011;9779;51.756;7.450;2023-12-14T00:58:37;7.67;;;7.17;;
19291;SDS011;9779;51.756;7.450;2023-12-14T01:01:02;7.63;;;7.13;;
19291;SDS011;9779;51.756;7.450;2023-12-14T01:03:28;7.13;;;6.60;;
19291;SDS011;9779;51.756;7.450;2023-12-14T01:05:54;7.70;;;7.10;;
19291;SDS011;9779;51.756;7.450;2023-12-14T01:08:20;7.53;;;6.97;;
19291;SDS011;9779;51.756;7.450;2023-12-14T01:10:45;7.80;;;6.67;;
19291;SDS011;9779;51.756;7.450;2023-12-14T01:13:11;6.93;;;6.53;;
19291;SDS011;9779;51.756;7.450;2023-12-14T01:15:37;7.30;;;6.60;;
19291;SDS011;9779;51.756;7.450;2023-12-14T01:18:02;6.30;;;5.90;;
19291;SDS011;9779;51.756;7.450;2023-12-14T01:20:28;6.83;;;6.33;;
19291;SDS011;9779;51.756;7.450;2023-12-14T01:22:54;6.53;;;6.13;;
19291;SDS011;9779;51.756;7.450;2023-12-14T01:25:19;6.57;;;6.17;;
19291;SDS011;9779;51.756;7.450;2023-12-14T01:27:45;6.60;;;6.20;;
19291;SDS011;9779;51.756;7.450;2023-12-14T01:30:11;6.47;;;6.07;;
19291;SDS011;9779;51.756;7.450;2023-12-14T01:32:37;6.80;;;6.30;;
19291;SDS011;9779;51.756;7.450;2023-12-14T01:35:02;6.53;;;6.03;;
19291;SDS011;9779;51.756;7.450;2023-12-14T01:37:28;6.60;;;5.57;;
19291;SDS011;9779;51.756;7.450;2023-12-14T01:39:54;6.40;;;6.00;;
19291;SDS011;9779;51.756;7.450;2023-12-14T01:42:19;5.90;;;5.50;;
19291;SDS011;9779;51.756;7.450;2023-12-14T01:44:45;6.07;;;5.63;;
19291;SDS011;9779;51.756;7.450;2023-12-14T01:47:11;5.93;;;5.43;;
19291;SDS011;9779;51.756;7.450;2023-12-14T01:49:36;6.07;;;5.47;;
19291;SDS011;9779;51.756;7.450;2023-12-14T01:52:02;6.83;;;6.33;;
19291;SDS011;9779;51.756;7.450;2023-12-14T01:54:27;6.07;;;5.60;;
19291;SDS011;9779;51.756;7.450;2023-12-14T01:56:53;7.10;;;6.53;;
19291;SDS011;9779;51.756;7.450;2023-12-14T01:59:19;8.03;;;7.33;;
19291;SDS011;9779;51.756;7.450;2023-12-14T02:01:46;7.70;;;7.10;;
19291;SDS011;9779;51.756;7.450;2023-12-14T02:04:17;8.00;;;7.30;;
19291;SDS011;9779;51.756;7.450;2023-12-14T02:06:42;7.77;;;7.23;;
19291;SDS011;9779;51.756;7.450;2023-12-14T02:09:08;8.10;;;7.43;;
19291;SDS011;9779;51.756;7.450;2023-12-14T02:11:35;7.80;;;7.30;;
19291;SDS011;9779;51.756;7.450;2023-12-14T02:14:08;8.97;;;8.20;;
19291;SDS011;9779;51.756;7.450;2023-12-14T02:16:34;8.57;;;8.03;;
19291;SDS011;9779;51.756;7.450;2023-12-14T02:19:00;11.03;;;7.63;;
19291;SDS011;9779;51.756;7.450;2023-12-14T02:21:26;8.93;;;8.03;;
19291;SDS011;9779;51.756;7.450;2023-12-14T02:23:51;8.20;;;7.60;;
19291;SDS011;9779;51.756;7.450;2023-12-14T02:26:17;8.63;;;7.90;;
19291;SDS011;9779;51.756;7.450;2023-12-14T02:28:42;8.37;;;7.77;;
19291;SDS011;9779;51.756;7.450;2023-12-14T02:31:08;8.03;;;7.53;;
19291;SDS011;9779;51.756;7.450;2023-12-14T02:33:34;9.20;;;7.67;;
19291;SDS011;9779;51.756;7.450;2023-12-14T02:36:00;8.27;;;7.50;;
19291;SDS011;9779;51.756;7.450;2023-12-14T02:38:26;8.97;;;8.07;;
19291;SDS011;9779;51.756;7.450;2023-12-14T02:40:51;9.27;;;8.57;;
19291;SDS011;9779;51.756;7.450;2023-12-14T02:43:18;8.47;;;7.40;;
19291;SDS011;9779;51.756;7.450;2023-12-14T02:45:44;8.33;;;7.83;;
19291;SDS011;9779;51.756;7.450;2023-12-14T02:48:09;8.83;;;7.90;;
19291;SDS011;9779;51.756;7.450;2023-12-14T02:50:35;8.67;;;8.07;;
19291;SDS011;9779;51.756;7.450;2023-12-14T02:53:01;9.80;;;8.73;;
19291;SDS011;9779;51.756;7.450;2023-12-14T02:55:26;9.53;;;8.80;;
19291;SDS011;9779;51.756;7.450;2023-12-14T02:57:52;8.63;;;8.03;;
19291;SDS011;9779;51.756;7.450;2023-12-14T03:00:18;8.80;;;8.20;;
19291;SDS011;9779;51.756;7.450;2023-12-14T03:02:44;9.60;;;8.90;;
19291;SDS011;9779;51.756;7.450;2023-12-14T03:05:10;9.03;;;8.23;;
19291;SDS011;9779;51.756;7.450;2023-12-14T03:07:35;8.33;;;7.73;;
19291;SDS011;9779;51.756;7.450;2023-12-14T03:10:02;10.53;;;9.67;;
19291;SDS011;9779;51.756;7.450;2023-12-14T03:12:28;9.03;;;8.07;;
19291;SDS011;9779;51.756;7.450;2023-12-14T03:14:53;7.23;;;6.73;;
19291;SDS011;9779;51.756;7.450;2023-12-14T03:17:19;9.13;;;8.30;;
19291;SDS011;9779;51.756;7.450;2023-12-14T03:19:45;8.00;;;7.50;;
19291;SDS011;9779;51.756;7.450;2023-12-14T03:22:10;7.80;;;7.20;;
19291;SDS011;9779;51.756;7.450;2023-12-14T03:24:36;7.93;;;7.23;;
19291;SDS011;9779;51.756;7.450;2023-12-14T03:27:02;7.73;;;6.87;;
19291;SDS011;9779;51.756;7.450;2023-12-14T03:29:28;7.77;;;7.27;;
19291;SDS011;9779;51.756;7.450;2023-12-14T03:31:57;6.70;;;6.10;;
19291;SDS011;9779;51.756;7.450;2023-12-14T03:34:24;6.73;;;6.33;;
19291;SDS011;9779;51.756;7.450;2023-12-14T03:36:50;6.60;;;6.20;;
19291;SDS011;9779;51.756;7.450;2023-12-14T03:39:16;6.47;;;6.07;;
19291;SDS011;9779;51.756;7.450;2023-12-14T03:41:42;5.77;;;5.37;;
19291;SDS011;9779;51.756;7.450;2023-12-14T03:44:08;6.67;;;6.27;;
19291;SDS011;9779;51.756;7.450;2023-12-14T03:46:33;6.00;;;5.60;;
19291;SDS011;9779;51.756;7.450;2023-12-14T03:48:59;8.37;;;5.40;;
19291;SDS011;9779;51.756;7.450;2023-12-14T03:51:25;6.33;;;5.93;;
19291;SDS011;9779;51.756;7.450;2023-12-14T03:53:51;5.97;;;5.47;;
19291;SDS011;9779;51.756;7.450;2023-12-14T03:56:16;5.80;;;5.40;;
19291;SDS011;9779;51.756;7.450;2023-12-14T03:58:42;6.10;;;5.60;;
19291;SDS011;9779;51.756;7.450;2023-12-14T04:01:07;5.87;;;5.40;;
19291;SDS011;9779;51.756;7.450;2023-12-14T04:03:39;6.37;;;5.60;;
19291;SDS011;9779;51.756;7.450;2023-12-14T04:06:05;5.73;;;5.33;;
19291;SDS011;9779;51.756;7.450;2023-12-14T04:08:31;5.47;;;5.07;;
19291;SDS011;9779;51.756;7.450;2023-12-14T04:10:56;6.00;;;5.60;;
19291;SDS011;9779;51.756;7.450;2023-12-14T04:13:22;5.73;;;5.33;;
19291;SDS011;9779;51.756;7.450;2023-12-14T04:15:47;6.07;;;5.70;;
19291;SDS011;9779;51.756;7.450;2023-12-14T04:18:13;5.47;;;4.97;;
19291;SDS011;9779;51.756;7.450;2023-12-14T04:20:39;6.00;;;5.60;;
19291;SDS011;9779;51.756;7.450;2023-12-14T04:23:05;6.50;;;5.90;;
19291;SDS011;9779;51.756;7.450;2023-12-14T04:25:30;6.37;;;5.87;;
19291;SDS011;9779;51.756;7.450;2023-12-14T04:27:56;6.20;;;5.80;;
19291;SDS011;9779;51.756;7.450;2023-12-14T04:30:21;7.67;;;6.93;;
19291;SDS011;9779;51.756;7.450;2023-12-14T04:32:47;7.50;;;6.87;;
19291;SDS011;9779;51.756;7.450;2023-12-14T04:35:12;6.63;;;6.20;;
19291;SDS011;9779;51.756;7.450;2023-12-14T04:37:38;9.23;;;6.70;;
19291;SDS011;9779;51.756;7.450;2023-12-14T04:40:04;11.70;;;6.60;;
19291;SDS011;9779;51.756;7.450;2023-12-14T04:42:30;8.40;;;7.10;;
19291;SDS011;9779;51.756;7.450;2023-12-14T04:44:55;6.60;;;6.00;;
19291;SDS011;9779;51.756;7.450;2023-12-14T04:47:21;7.17;;;6.67;;
19291;SDS011;9779;51.756;7.450;2023-12-14T04:49:46;7.23;;;6.63;;
19291;SDS011;9779;51.756;7.450;2023-12-14T04:52:12;8.23;;;6.13;;
19291;SDS011;9779;51.756;7.450;2023-12-14T04:54:38;6.47;;;5.97;;
19291;SDS011;9779;51.756;7.450;2023-12-14T04:57:05;6.67;;;6.17;;
19291;SDS011;9779;51.756;7.450;2023-12-14T04:59:31;6.87;;;6.43;;
19291;SDS011;9779;51.756;7.450;2023-12-14T05:01:56;6.73;;;6.23;;
19291;SDS011;9779;51.756;7.450;2023-12-14T05:04:22;6.20;;;5.80;;
19291;SDS011;9779;51.756;7.450;2023-12-14T05:06:47;5.90;;;5.53;;
19291;SDS011;9779;51.756;7.450;2023-12-14T05:09:13;6.33;;;5.93;;
19291;SDS011;9779;51.756;7.450;2023-12-14T05:11:39;6.80;;;6.30;;
19291;SDS011;9779;51.756;7.450;2023-12-14T05:14:05;6.17;;;5.80;;
19291;SDS011;9779;51.756;7.450;2023-12-14T05:16:31;6.20;;;5.80;;
19291;SDS011;9779;51.756;7.450;2023-12-14T05:18:56;6.73;;;6.33;;
19291;SDS011;9779;51.756;7.450;2023-12-14T05:21:22;6.67;;;6.17;;
19291;SDS011;9779;51.756;7.450;2023-12-14T05:23:48;6.47;;;5.97;;
19291;SDS011;9779;51.756;7.450;2023-12-14T05:26:14;6.10;;;5.70;;
19291;SDS011;9779;51.756;7.450;2023-12-14T05:28:40;6.97;;;6.17;;
19291;SDS011;9779;51.756;7.450;2023-12-14T05:31:06;6.23;;;5.83;;
19291;SDS011;9779;51.756;7.450;2023-12-14T05:33:31;6.33;;;5.83;;
19291;SDS011;9779;51.756;7.450;2023-12-14T05:36:01;9.80;;;8.10;;
19291;SDS011;9779;51.756;7.450;2023-12-14T05:38:27;10.07;;;9.07;;
19291;SDS011;9779;51.756;7.450;2023-12-14T05:40:53;10.10;;;9.20;;
19291;SDS011;9779;51.756;7.450;2023-12-14T05:43:18;14.20;;;9.53;;
19291;SDS011;9779;51.756;7.450;2023-12-14T05:45:44;10.57;;;9.77;;
19291;SDS011;9779;51.756;7.450;2023-12-14T05:48:09;9.83;;;8.90;;
19291;SDS011;9779;51.756;7.450;2023-12-14T05:50:35;10.23;;;9.33;;
19291;SDS011;9779;51.756;7.450;2023-12-14T05:53:00;9.67;;;8.87;;
19291;SDS011;9779;51.756;7.450;2023-12-14T05:55:26;10.00;;;9.00;;
19291;SDS011;9779;51.756;7.450;2023-12-14T05:57:52;9.43;;;8.63;;
19291;SDS011;9779;51.756;7.450;2023-12-14T06:00:19;9.90;;;8.97;;
19291;SDS011;9779;51.756;7.450;2023-12-14T06:02:44;11.20;;;10.23;;
19291;SDS011;9779;51.756;7.450;2023-12-14T06:05:10;11.70;;;9.13;;
19291;SDS011;9779;51.756;7.450;2023-12-14T06:07:36;9.93;;;9.13;;
19291;SDS011;9779;51.756;7.450;2023-12-14T06:10:02;10.07;;;9.27;;
19291;SDS011;9779;51.756;7.450;2023-12-14T06:12:28;9.93;;;9.20;;
19291;SDS011;9779;51.756;7.450;2023-12-14T06:14:54;9.30;;;8.60;;
19291;SDS011;9779;51.756;7.450;2023-12-14T06:17:19;9.07;;;8.47;;
19291;SDS011;9779;51.756;7.450;2023-12-14T06:19:45;8.83;;;8.13;;
19291;SDS011;9779;51.756;7.450;2023-12-14T06:22:11;8.80;;;8.20;;
19291;SDS011;9779;51.756;7.450;2023-12-14T06:24:36;8.60;;;7.93;;
19291;SDS011;9779;51.756;7.450;2023-12-14T06:27:02;9.93;;;9.00;;
19291;SDS011;9779;51.756;7.450;2023-12-14T06:29:28;9.03;;;8.23;;
19291;SDS011;9779;51.756;7.450;2023-12-14T06:31:54;9.20;;;8.60;;
19291;SDS011;9779;51.756;7.450;2023-12-14T06:34:19;8.53;;;7.83;;
19291;SDS011;9779;51.756;7.450;2023-12-14T06:36:45;8.90;;;8.20;;
19291;SDS011;9779;51.756;7.450;2023-12-14T06:39:11;10.97;;;10.07;;
19291;SDS011;9779;51.756;7.450;2023-12-14T06:41:38;10.97;;;10.07;;
19291;SDS011;9779;51.756;7.450;2023-12-14T06:44:04;11.93;;;10.73;;
19291;SDS011;9779;51.756;7.450;2023-12-14T06:46:30;10.37;;;9.47;;
19291;SDS011;9779;51.756;7.450;2023-12-14T06:48:55;9.80;;;9.10;;
19291;SDS011;9779;51.756;7.450;2023-12-14T06:51:21;9.50;;;8.80;;
19291;SDS011;9779;51.756;7.450;2023-12-14T06:53:47;8.50;;;7.90;;
19291;SDS011;9779;51.756;7.450;2023-12-14T06:56:13;9.13;;;8.50;;
19291;SDS011;9779;51.756;7.450;2023-12-14T06:58:40;7.60;;;7.00;;
19291;SDS011;9779;51.756;7.450;2023-12-14T07:01:07;8.77;;;8.17;;
19291;SDS011;9779;51.756;7.450;2023-12-14T07:03:43;9.03;;;7.90;;
19291;SDS011;9779;51.756;7.450;2023-12-14T07:06:16;9.50;;;8.57;;
19291;SDS011;9779;51.756;7.450;2023-12-14T07:08:43;9.57;;;8.67;;
19291;SDS011;9779;51.756;7.450;2023-12-14T07:11:09;9.10;;;8.00;;
19291;SDS011;9779;51.756;7.450;2023-12-14T07:13:35;9.63;;;8.83;;
19291;SDS011;9779;51.756;7.450;2023-12-14T07:16:03;9.03;;;8.43;;
19291;SDS011;9779;51.756;7.450;2023-12-14T07:18:38;10.23;;;9.30;;
19291;SDS011;9779;51.756;7.450;2023-12-14T07:21:05;10.00;;;9.23;;
19291;SDS011;9779;51.756;7.450;2023-12-14T07:23:31;10.20;;;9.00;;
19291;SDS011;9779;51.756;7.450;2023-12-14T07:25:57;10.40;;;9.40;;
19291;SDS011;9779;51.756;7.450;2023-12-14T07:28:23;10.03;;;9.33;;
19291;SDS011;9779;51.756;7.450;2023-12-14T07:30:48;9.83;;;9.03;;
19291;SDS011;9779;51.756;7.450;2023-12-14T07:33:14;10.63;;;9.63;;
19291;SDS011;9779;51.756;7.450;2023-12-14T07:35:40;10.60;;;9.90;;
19291;SDS011;9779;51.756;7.450;2023-12-14T07:38:06;10.57;;;9.77;;
19291;SDS011;9779;51.756;7.450;2023-12-14T07:40:32;10.47;;;9.77;;
19291;SDS011;9779;51.756;7.450;2023-12-14T07:42:58;11.47;;;10.57;;
19291;SDS011;9779;51.756;7.450;2023-12-14T07:45:24;10.87;;;10.07;;
19291;SDS011;9779;51.756;7.450;2023-12-14T07:47:49;10.87;;;10.03;;
19291;SDS011;9779;51.756;7.450;2023-12-14T07:50:15;11.63;;;10.53;;
19291;SDS011;9779;51.756;7.450;2023-12-14T07:52:40;14.80;;;10.33;;
19291;SDS011;9779;51.756;7.450;2023-12-14T07:55:06;11.27;;;10.30;;
19291;SDS011;9779;51.756;7.450;2023-12-14T07:57:32;13.50;;;12.27;;
19291;SDS011;9779;51.756;7.450;2023-12-14T07:59:58;13.10;;;11.90;;
19291;SDS011;9779;51.756;7.450;2023-12-14T08:02:23;12.07;;;10.97;;
19291;SDS011;9779;51.756;7.450;2023-12-14T08:04:49;13.87;;;12.67;;
19291;SDS011;9779;51.756;7.450;2023-12-14T08:07:15;12.70;;;11.67;;
19291;SDS011;9779;51.756;7.450;2023-12-14T08:09:40;12.73;;;11.47;;
19291;SDS011;9779;51.756;7.450;2023-12-14T08:12:06;12.53;;;11.23;;
19291;SDS011;9779;51.756;7.450;2023-12-14T08:14:32;14.30;;;12.87;;
19291;SDS011;9779;51.756;7.450;2023-12-14T08:16:59;15.73;;;12.63;;
19291;SDS011;9779;51.756;7.450;2023-12-14T08:19:25;13.10;;;11.90;;
19291;SDS011;9779;51.756;7.450;2023-12-14T08:21:50;13.47;;;12.47;;
19291;SDS011;9779;51.756;7.450;2023-12-14T08:24:16;11.57;;;10.67;;
19291;SDS011;9779;51.756;7.450;2023-12-14T08:26:42;13.10;;;12.03;;
19291;SDS011;9779;51.756;7.450;2023-12-14T08:29:08;17.40;;;15.60;;
19291;SDS011;9779;51.756;7.450;2023-12-14T08:31:34;8.67;;;7.77;;
19291;SDS011;9779;51.756;7.450;2023-12-14T08:34:00;9.73;;;8.97;;
19291;SDS011;9779;51.756;7.450;2023-12-14T08:36:25;16.20;;;14.80;;
19291;SDS011;9779;51.756;7.450;2023-12-14T08:38:51;16.87;;;15.10;;
19291;SDS011;9779;51.756;7.450;2023-12-14T08:41:17;16.20;;;14.73;;
19291;SDS011;9779;51.756;7.450;2023-12-14T08:43:42;16.03;;;14.40;;
19291;SDS011;9779;51.756;7.450;2023-12-14T08:46:08;21.80;;;17.10;;
19291;SDS011;9779;51.756;7.450;2023-12-14T08:48:35;14.77;;;13.40;;
19291;SDS011;9779;51.756;7.450;2023-12-14T08:51:00;18.03;;;14.97;;
19291;SDS011;9779;51.756;7.450;2023-12-14T08:53:26;21.80;;;14.00;;
19291;SDS011;9779;51.756;7.450;2023-12-14T08:55:53;15.57;;;14.13;;
19291;SDS011;9779;51.756;7.450;2023-12-14T08:58:19;14.90;;;13.43;;
19291;SDS011;9779;51.756;7.450;2023-12-14T09:00:44;16.50;;;14.77;;
19291;SDS011;9779;51.756;7.450;2023-12-14T09:03:10;14.47;;;13.23;;
19291;SDS011;9779;51.756;7.450;2023-12-14T09:05:36;15.70;;;14.37;;
19291;SDS011;9779;51.756;7.450;2023-12-14T09:08:02;63.63;;;34.90;;
19291;SDS011;9779;51.756;7.450;2023-12-14T09:10:28;45.20;;;26.23;;
19291;SDS011;9779;51.756;7.450;2023-12-14T09:12:53;16.50;;;14.93;;
19291;SDS011;9779;51.756;7.450;2023-12-14T09:15:19;17.80;;;16.00;;
19291;SDS011;9779;51.756;7.450;2023-12-14T09:17:45;14.53;;;13.20;;
19291;SDS011;9779;51.756;7.450;2023-12-14T09:20:10;13.87;;;12.53;;
19291;SDS011;9779;51.756;7.450;2023-12-14T09:22:36;14.30;;;12.83;;
19291;SDS011;9779;51.756;7.450;2023-12-14T09:25:02;14.47;;;13.17;;
19291;SDS011;9779;51.756;7.450;2023-12-14T09:27:28;13.83;;;12.60;;
19291;SDS011;9779;51.756;7.450;2023-12-14T09:29:54;14.87;;;13.47;;
19291;SDS011;9779;51.756;7.450;2023-12-14T09:32:20;13.83;;;12.27;;
19291;SDS011;9779;51.756;7.450;2023-12-14T09:34:46;15.10;;;13.60;;
19291;SDS011;9779;51.756;7.450;2023-12-14T09:37:11;15.60;;;14.03;;
19291;SDS011;9779;51.756;7.450;2023-12-14T09:39:39;15.20;;;13.50;;
19291;SDS011;9779;51.756;7.450;2023-12-14T09:42:05;18.70;;;15.23;;
19291;SDS011;9779;51.756;7.450;2023-12-14T09:44:32;13.60;;;12.40;;
19291;SDS011;9779;51.756;7.450;2023-12-14T09:46:59;12.07;;;11.07;;
19291;SDS011;9779;51.756;7.450;2023-12-14T09:49:31;13.17;;;11.77;;
19291;SDS011;9779;51.756;7.450;2023-12-14T09:51:57;12.70;;;11.60;;
19291;SDS011;9779;51.756;7.450;2023-12-14T09:54:24;12.67;;;11.67;;
19291;SDS011;9779;51.756;7.450;2023-12-14T09:56:51;13.47;;;12.27;;
19291;SDS011;9779;51.756;7.450;2023-12-14T09:59:17;13.73;;;12.30;;
19291;SDS011;9779;51.756;7.450;2023-12-14T10:01:43;14.73;;;13.33;;
19291;SDS011;9779;51.756;7.450;2023-12-14T10:04:10;18.27;;;15.30;;
19291;SDS011;9779;51.756;7.450;2023-12-14T10:06:40;13.83;;;12.53;;
19291;SDS011;9779;51.756;7.450;2023-12-14T10:09:07;13.67;;;12.37;;
19291;SDS011;9779;51.756;7.450;2023-12-14T10:11:43;14.10;;;12.80;;
19291;SDS011;9779;51.756;7.450;2023-12-14T10:16:49;12.87;;;11.87;;
19291;SDS011;9779;51.756;7.450;2023-12-14T10:19:17;14.00;;;12.80;;
19291;SDS011;9779;51.756;7.450;2023-12-14T10:21:43;14.07;;;12.80;;
19291;SDS011;9779;51.756;7.450;2023-12-14T10:24:11;13.30;;;12.30;;
19291;SDS011;9779;51.756;7.450;2023-12-14T10:26:37;14.30;;;13.10;;
19291;SDS011;9779;51.756;7.450;2023-12-14T10:29:03;14.23;;;13.10;;
19291;SDS011;9779;51.756;7.450;2023-12-14T10:31:30;13.97;;;12.77;;
19291;SDS011;9779;51.756;7.450;2023-12-14T10:33:56;15.23;;;13.40;;
19291;SDS011;9779;51.756;7.450;2023-12-14T10:36:23;14.90;;;13.57;;
19291;SDS011;9779;51.756;7.450;2023-12-14T10:38:55;15.10;;;13.80;;
19291;SDS011;9779;51.756;7.450;2023-12-14T10:41:22;15.70;;;14.27;;
19291;SDS011;9779;51.756;7.450;2023-12-14T10:43:50;16.03;;;14.43;;
19291;SDS011;9779;51.756;7.450;2023-12-14T10:46:18;17.67;;;15.37;;
19291;SDS011;9779;51.756;7.450;2023-12-14T10:48:45;16.33;;;14.83;;
19291;SDS011;9779;51.756;7.450;2023-12-14T10:51:13;20.73;;;18.13;;
19291;SDS011;9779;51.756;7.450;2023-12-14T10:53:39;17.03;;;15.37;;
19291;SDS011;9779;51.756;7.450;2023-12-14T10:56:08;14.47;;;13.20;;
19291;SDS011;9779;51.756;7.450;2023-12-14T10:58:45;16.67;;;15.07;;
19291;SDS011;9779;51.756;7.450;2023-12-14T11:01:19;17.13;;;14.27;;
19291;SDS011;9779;51.756;7.450;2023-12-14T11:03:46;16.07;;;14.47;;
19291;SDS011;9779;51.756;7.450;2023-12-14T11:08:56;14.03;;;12.73;;
19291;SDS011;9779;51.756;7.450;2023-12-14T11:11:27;15.67;;;14.17;;
19291;SDS011;9779;51.756;7.450;2023-12-14T11:13:54;14.70;;;13.27;;
19291;SDS011;9779;51.756;7.450;2023-12-14T11:16:20;15.83;;;13.93;;
19291;SDS011;9779;51.756;7.450;2023-12-14T11:18:49;15.27;;;13.77;;
19291;SDS011;9779;51.756;7.450;2023-12-14T11:21:46;15.77;;;14.10;;
19291;SDS011;9779;51.756;7.450;2023-12-14T11:24:12;21.83;;;18.57;;
19291;SDS011;9779;51.756;7.450;2023-12-14T11:26:39;28.63;;;20.60;;
19291;SDS011;9779;51.756;7.450;2023-12-14T11:29:06;16.70;;;14.63;;
19291;SDS011;9779;51.756;7.450;2023-12-14T11:31:32;17.23;;;15.43;;
19291;SDS011;9779;51.756;7.450;2023-12-14T11:33:58;17.00;;;15.07;;
19291;SDS011;9779;51.756;7.450;2023-12-14T11:36:26;15.90;;;14.13;;
19291;SDS011;9779;51.756;7.450;2023-12-14T11:38:51;14.83;;;13.50;;
19291;SDS011;9779;51.756;7.450;2023-12-14T11:41:20;15.03;;;13.60;;
19291;SDS011;9779;51.756;7.450;2023-12-14T11:43:46;14.23;;;12.93;;
19291;SDS011;9779;51.756;7.450;2023-12-14T11:46:12;44.47;;;25.83;;
19291;SDS011;9779;51.756;7.450;2023-12-14T11:48:39;32.57;;;22.57;;
19291;SDS011;9779;51.756;7.450;2023-12-14T11:51:05;23.63;;;18.33;;
19291;SDS011;9779;51.756;7.450;2023-12-14T11:53:31;19.57;;;16.90;;
19291;SDS011;9779;51.756;7.450;2023-12-14T11:55:59;23.90;;;19.47;;
19291;SDS011;9779;51.756;7.450;2023-12-14T11:58:27;17.97;;;15.97;;
19291;SDS011;9779;51.756;7.450;2023-12-14T12:00:53;17.73;;;15.87;;
19291;SDS011;9779;51.756;7.450;2023-12-14T12:03:20;46.87;;;25.03;;
19291;SDS011;9779;51.756;7.450;2023-12-14T12:05:50;18.37;;;16.43;;
19291;SDS011;9779;51.756;7.450;2023-12-14T12:08:17;21.03;;;17.20;;
19291;SDS011;9779;51.756;7.450;2023-12-14T12:10:44;17.87;;;16.17;;
19291;SDS011;9779;51.756;7.450;2023-12-14T12:13:15;15.30;;;13.90;;
19291;SDS011;9779;51.756;7.450;2023-12-14T12:15:43;17.37;;;13.87;;
19291;SDS011;9779;51.756;7.450;2023-12-14T12:18:09;17.97;;;16.17;;
19291;SDS011;9779;51.756;7.450;2023-12-14T12:20:36;15.03;;;13.63;;
19291;SDS011;9779;51.756;7.450;2023-12-14T12:23:02;20.43;;;15.27;;
19291;SDS011;9779;51.756;7.450;2023-12-14T12:25:28;16.00;;;14.60;;
19291;SDS011;9779;51.756;7.450;2023-12-14T12:27:56;18.73;;;16.90;;
19291;SDS011;9779;51.756;7.450;2023-12-14T12:30:23;17.37;;;15.57;;
19291;SDS011;9779;51.756;7.450;2023-12-14T12:32:49;20.00;;;17.97;;
19291;SDS011;9779;51.756;7.450;2023-12-14T12:35:18;16.73;;;15.10;;
19291;SDS011;9779;51.756;7.450;2023-12-14T12:37:44;15.53;;;13.90;;
19291;SDS011;9779;51.756;7.450;2023-12-14T12:40:10;15.60;;;14.20;;
19291;SDS011;9779;51.756;7.450;2023-12-14T12:42:36;16.00;;;14.37;;
19291;SDS011;9779;51.756;7.450;2023-12-14T12:45:02;14.70;;;13.50;;
19291;SDS011;9779;51.756;7.450;2023-12-14T12:47:29;14.20;;;13.03;;
19291;SDS011;9779;51.756;7.450;2023-12-14T12:49:55;14.60;;;13.33;;
19291;SDS011;9779;51.756;7.450;2023-12-14T12:52:20;13.30;;;12.20;;
19291;SDS011;9779;51.756;7.450;2023-12-14T12:54:46;17.03;;;12.87;;
19291;SDS011;9779;51.756;7.450;2023-12-14T12:57:12;13.43;;;12.33;;
19291;SDS011;9779;51.756;7.450;2023-12-14T12:59:37;12.70;;;11.73;;
19291;SDS011;9779;51.756;7.450;2023-12-14T13:02:03;14.70;;;13.40;;
19291;SDS011;9779;51.756;7.450;2023-12-14T13:04:29;13.87;;;12.73;;
19291;SDS011;9779;51.756;7.450;2023-12-14T13:06:55;15.17;;;13.77;;
19291;SDS011;9779;51.756;7.450;2023-12-14T13:09:21;15.33;;;13.60;;
19291;SDS011;9779;51.756;7.450;2023-12-14T13:11:47;17.70;;;14.13;;
19291;SDS011;9779;51.756;7.450;2023-12-14T13:14:13;17.97;;;16.07;;
19291;SDS011;9779;51.756;7.450;2023-12-14T13:16:40;15.97;;;14.30;;
19291;SDS011;9779;51.756;7.450;2023-12-14T13:19:05;16.50;;;14.63;;
19291;SDS011;9779;51.756;7.450;2023-12-14T13:21:31;16.70;;;14.60;;
19291;SDS011;9779;51.756;7.450;2023-12-14T13:24:01;14.53;;;13.17;;
19291;SDS011;9779;51.756;7.450;2023-12-14T13:26:27;14.27;;;13.07;;
19291;SDS011;9779;51.756;7.450;2023-12-14T13:28:53;14.17;;;12.50;;
19291;SDS011;9779;51.756;7.450;2023-12-14T13:31:18;14.57;;;13.27;;
19291;SDS011;9779;51.756;7.450;2023-12-14T13:33:47;14.10;;;13.00;;
19291;SDS011;9779;51.756;7.450;2023-12-14T13:36:15;13.87;;;12.70;;
19291;SDS011;9779;51.756;7.450;2023-12-14T13:38:40;15.00;;;13.83;;
19291;SDS011;9779;51.756;7.450;2023-12-14T13:41:07;15.40;;;13.80;;
19291;SDS011;9779;51.756;7.450;2023-12-14T13:43:33;13.30;;;12.30;;
19291;SDS011;9779;51.756;7.450;2023-12-14T13:45:59;15.77;;;12.67;;
19291;SDS011;9779;51.756;7.450;2023-12-14T13:48:25;13.07;;;11.97;;
19291;SDS011;9779;51.756;7.450;2023-12-14T13:50:51;12.47;;;11.40;;
19291;SDS011;9779;51.756;7.450;2023-12-14T13:53:17;12.47;;;11.57;;
19291;SDS011;9779;51.756;7.450;2023-12-14T13:55:43;12.87;;;11.97;;
19291;SDS011;9779;51.756;7.450;2023-12-14T13:58:09;12.53;;;11.60;;
19291;SDS011;9779;51.756;7.450;2023-12-14T14:00:35;12.90;;;11.83;;
19291;SDS011;9779;51.756;7.450;2023-12-14T14:03:01;12.60;;;11.43;;
19291;SDS011;9779;51.756;7.450;2023-12-14T14:05:28;14.33;;;13.13;;
19291;SDS011;9779;51.756;7.450;2023-12-14T14:07:54;13.03;;;11.93;;
19291;SDS011;9779;51.756;7.450;2023-12-14T14:10:20;14.67;;;13.23;;
19291;SDS011;9779;51.756;7.450;2023-12-14T14:12:46;12.40;;;11.50;;
19291;SDS011;9779;51.756;7.450;2023-12-14T14:15:12;18.90;;;15.70;;
19291;SDS011;9779;51.756;7.450;2023-12-14T14:17:38;25.47;;;20.07;;
19291;SDS011;9779;51.756;7.450;2023-12-14T14:20:04;9.10;;;8.33;;
19291;SDS011;9779;51.756;7.450;2023-12-14T14:22:31;13.83;;;12.83;;
19291;SDS011;9779;51.756;7.450;2023-12-14T14:24:57;14.63;;;13.20;;
19291;SDS011;9779;51.756;7.450;2023-12-14T14:27:23;14.40;;;13.13;;
19291;SDS011;9779;51.756;7.450;2023-12-14T14:29:51;13.63;;;12.53;;
19291;SDS011;9779;51.756;7.450;2023-12-14T14:32:20;13.93;;;12.73;;
19291;SDS011;9779;51.756;7.450;2023-12-14T14:34:45;14.23;;;13.20;;
19291;SDS011;9779;51.756;7.450;2023-12-14T14:37:11;19.77;;;14.00;;
19291;SDS011;9779;51.756;7.450;2023-12-14T14:39:37;15.23;;;13.90;;
19291;SDS011;9779;51.756;7.450;2023-12-14T14:42:08;15.97;;;14.67;;
19291;SDS011;9779;51.756;7.450;2023-12-14T14:44:34;14.63;;;13.33;;
19291;SDS011;9779;51.756;7.450;2023-12-14T14:46:59;15.03;;;13.67;;